createdAt,value
2023-03-22T00:00:51.990Z,88.92
2023-03-22T00:01:51.984Z,88.92
2023-03-22T00:02:51.985Z,88.92
2023-03-22T00:03:52.008Z,89.03
2023-03-22T00:04:51.954Z,89.03
2023-03-22T00:05:51.943Z,89.03
2023-03-22T00:06:51.925Z,89.12
2023-03-22T00:07:51.913Z,88.92
2023-03-22T00:08:51.920Z,89.03
2023-03-22T00:09:51.906Z,89.12
2023-03-22T00:10:51.871Z,89.23
2023-03-22T00:11:51.884Z,89.33
2023-03-22T00:12:51.850Z,89.23
2023-03-22T00:13:51.865Z,89.23
2023-03-22T00:14:51.846Z,89.23
2023-03-22T00:15:51.831Z,89.33
2023-03-22T00:16:51.802Z,89.33
2023-03-22T00:17:51.798Z,89.43
2023-03-22T00:18:51.800Z,89.33
2023-03-22T00:19:51.781Z,89.43
2023-03-22T00:20:51.766Z,89.33
2023-03-22T00:21:51.768Z,89.43
2023-03-22T00:22:51.731Z,89.43
2023-03-22T00:23:51.744Z,89.33
2023-03-22T00:24:51.722Z,89.33
2023-03-22T00:25:51.710Z,89.43
2023-03-22T00:26:51.689Z,89.64
2023-03-22T00:27:51.686Z,89.64
2023-03-22T00:28:51.670Z,89.84
2023-03-22T00:29:51.690Z,89.94
2023-03-22T00:30:51.669Z,90.09
2023-03-22T00:31:51.659Z,90.09
2023-03-22T00:32:51.640Z,89.98
2023-03-22T00:33:51.636Z,90.09
2023-03-22T00:34:51.609Z,90.09
2023-03-22T00:35:51.652Z,90.09
2023-03-22T00:36:51.585Z,90.30
2023-03-22T00:37:51.590Z,90.30
2023-03-22T00:38:51.557Z,90.30
2023-03-22T00:39:51.577Z,90.30
2023-03-22T00:40:51.541Z,90.50
2023-03-22T00:41:51.544Z,90.60
2023-03-22T00:42:51.518Z,90.39
2023-03-22T00:43:51.550Z,90.50
2023-03-22T00:44:51.490Z,90.50
2023-03-22T00:45:51.599Z,90.39
2023-03-22T00:46:51.475Z,90.39
2023-03-22T00:47:51.513Z,90.50
2023-03-22T00:48:51.452Z,90.50
2023-03-22T00:49:51.469Z,90.50
2023-03-22T00:50:51.427Z,90.50
2023-03-22T00:51:51.423Z,90.60
2023-03-22T00:52:51.406Z,90.50
2023-03-22T00:53:51.415Z,90.60
2023-03-22T00:54:51.406Z,90.60
2023-03-22T00:55:51.378Z,90.60
2023-03-22T00:56:51.384Z,90.60
2023-03-22T00:57:51.346Z,90.60
2023-03-22T00:58:51.346Z,90.81
2023-03-22T00:59:51.358Z,90.81
2023-03-22T01:00:51.336Z,90.91
2023-03-22T01:01:51.322Z,90.91
2023-03-22T01:02:51.317Z,91.01
2023-03-22T01:03:51.403Z,91.01
2023-03-22T01:04:51.265Z,90.91
2023-03-22T01:05:51.263Z,90.81
2023-03-22T01:06:51.257Z,90.70
2023-03-22T01:07:51.263Z,90.50
2023-03-22T01:08:51.265Z,90.25
2023-03-22T01:09:51.223Z,90.15
2023-03-22T01:10:51.274Z,89.94
2023-03-22T01:11:51.187Z,90.05
2023-03-22T01:12:51.172Z,90.15
2023-03-22T01:13:51.179Z,90.05
2023-03-22T01:14:51.166Z,89.94
2023-03-22T01:15:51.143Z,90.05
2023-03-22T01:16:51.180Z,90.15
2023-03-22T01:17:51.127Z,90.15
2023-03-22T01:18:51.103Z,90.25
2023-03-22T01:19:51.114Z,90.36
2023-03-22T01:20:51.085Z,90.25
2023-03-22T01:21:51.082Z,90.25
2023-03-22T01:22:51.063Z,90.39
2023-03-22T01:23:51.089Z,90.39
2023-03-22T01:24:51.048Z,90.19
2023-03-22T01:25:51.037Z,90.39
2023-03-22T01:26:51.015Z,90.39
2023-03-22T01:27:51.014Z,90.15
2023-03-22T01:28:50.985Z,90.30
2023-03-22T01:29:51.051Z,90.15
2023-03-22T01:30:51.016Z,90.25
2023-03-22T01:31:50.962Z,90.05
2023-03-22T01:32:50.941Z,90.15
2023-03-22T01:33:50.964Z,90.39
2023-03-22T01:34:50.932Z,90.39
2023-03-22T01:35:50.979Z,90.39
2023-03-22T01:36:50.910Z,90.30
2023-03-22T01:37:50.895Z,90.39
2023-03-22T01:38:50.879Z,90.39
2023-03-22T01:39:50.880Z,90.60
2023-03-22T01:40:50.900Z,90.60
2023-03-22T01:41:50.867Z,90.70
2023-03-22T01:42:50.833Z,90.60
2023-03-22T01:43:50.844Z,90.70
2023-03-22T01:44:50.808Z,90.70
2023-03-22T01:45:50.923Z,90.50
2023-03-22T01:46:50.789Z,90.60
2023-03-22T01:47:50.820Z,90.50
2023-03-22T01:48:50.802Z,90.39
2023-03-22T01:49:50.761Z,90.39
2023-03-22T01:50:50.755Z,90.50
2023-03-22T01:51:50.759Z,90.50
2023-03-22T01:52:50.722Z,90.70
2023-03-22T01:53:50.736Z,90.60
2023-03-22T01:54:50.701Z,90.60
2023-03-22T01:55:50.725Z,90.60
2023-03-22T01:56:50.744Z,90.50
2023-03-22T01:57:50.693Z,90.70
2023-03-22T01:58:50.649Z,90.60
2023-03-22T01:59:50.672Z,90.70
2023-03-22T02:00:50.636Z,90.70
2023-03-22T02:01:50.739Z,90.81
2023-03-22T02:02:50.686Z,90.81
2023-03-22T02:03:50.610Z,91.01
2023-03-22T02:04:50.604Z,91.11
2023-03-22T02:05:50.587Z,91.22
2023-03-22T02:06:50.594Z,91.01
2023-03-22T02:07:50.568Z,91.01
2023-03-22T02:08:50.544Z,91.01
2023-03-22T02:09:50.536Z,91.01
2023-03-22T02:10:50.526Z,91.11
2023-03-22T02:11:50.515Z,91.11
2023-03-22T02:12:50.890Z,91.01
2023-03-22T02:13:50.493Z,90.81
2023-03-22T02:14:50.517Z,91.01
2023-03-22T02:15:50.510Z,90.91
2023-03-22T02:16:50.464Z,90.91
2023-03-22T02:17:50.470Z,90.91
2023-03-22T02:18:50.474Z,91.01
2023-03-22T02:19:50.430Z,91.01
2023-03-22T02:20:50.416Z,90.91
2023-03-22T02:21:50.415Z,91.01
2023-03-22T02:22:50.382Z,91.11
2023-03-22T02:23:50.398Z,91.01
2023-03-22T02:24:50.382Z,91.01
2023-03-22T02:25:50.363Z,90.91
2023-03-22T02:26:50.345Z,91.01
2023-03-22T02:27:50.345Z,91.01
2023-03-22T02:28:50.316Z,91.22
2023-03-22T02:29:50.314Z,91.22
2023-03-22T02:30:50.333Z,91.11
2023-03-22T02:31:50.314Z,91.11
2023-03-22T02:32:50.279Z,91.01
2023-03-22T02:33:50.290Z,91.11
2023-03-22T02:34:50.252Z,91.01
2023-03-22T02:35:50.268Z,91.01
2023-03-22T02:36:50.240Z,91.01
2023-03-22T02:37:50.250Z,91.01
2023-03-22T02:38:50.224Z,90.91
2023-03-22T02:39:50.190Z,91.01
2023-03-22T02:40:50.187Z,91.11
2023-03-22T02:41:50.162Z,91.11
2023-03-22T02:42:50.191Z,91.22
2023-03-22T02:43:50.152Z,91.22
2023-03-22T02:44:50.159Z,91.31
2023-03-22T02:45:50.146Z,91.31
2023-03-22T02:46:50.229Z,91.22
2023-03-22T02:47:50.210Z,91.22
2023-03-22T02:48:50.115Z,91.22
2023-03-22T02:49:50.094Z,91.31
2023-03-22T02:50:50.089Z,91.31
2023-03-22T02:51:50.050Z,91.31
2023-03-22T02:52:50.063Z,91.42
2023-03-22T02:53:50.042Z,91.52
2023-03-22T02:54:50.055Z,91.52
2023-03-22T02:55:50.014Z,91.63
2023-03-22T02:56:50.006Z,91.73
2023-03-22T02:57:49.998Z,91.63
2023-03-22T02:58:49.982Z,91.83
2023-03-22T02:59:49.966Z,91.93
2023-03-22T03:00:50.031Z,91.97
2023-03-22T03:01:50.003Z,92.08
2023-03-22T03:02:49.935Z,92.18
2023-03-22T03:03:49.937Z,92.18
2023-03-22T03:04:49.940Z,92.28
2023-03-22T03:05:49.899Z,92.49
2023-03-22T03:06:49.895Z,92.49
2023-03-22T03:07:49.874Z,92.79
2023-03-22T03:08:49.869Z,92.90
2023-03-22T03:09:49.861Z,92.90
2023-03-22T03:10:49.856Z,93.00
2023-03-22T03:11:49.834Z,92.90
2023-03-22T03:12:49.822Z,92.90
2023-03-22T03:13:49.811Z,92.90
2023-03-22T03:14:49.795Z,92.90
2023-03-22T03:15:49.808Z,92.90
2023-03-22T03:16:49.782Z,93.00
2023-03-22T03:17:49.766Z,93.00
2023-03-22T03:18:49.762Z,93.00
2023-03-22T03:19:49.734Z,93.00
2023-03-22T03:20:49.741Z,93.10
2023-03-22T03:21:49.727Z,93.30
2023-03-22T03:22:49.737Z,93.10
2023-03-22T03:23:49.806Z,93.10
2023-03-22T03:24:49.698Z,93.20
2023-03-22T03:25:49.674Z,93.10
2023-03-22T03:26:49.690Z,93.10
2023-03-22T03:27:49.670Z,93.10
2023-03-22T03:28:49.699Z,93.20
2023-03-22T03:29:49.627Z,93.30
2023-03-22T03:30:49.621Z,93.41
2023-03-22T03:31:49.674Z,93.51
2023-03-22T03:32:49.600Z,93.62
2023-03-22T03:33:49.591Z,93.62
2023-03-22T03:34:49.641Z,93.62
2023-03-22T03:35:49.590Z,93.71
2023-03-22T03:36:49.548Z,93.62
2023-03-22T03:37:49.532Z,93.62
2023-03-22T03:38:49.539Z,93.71
2023-03-22T03:39:49.529Z,93.82
2023-03-22T03:40:49.525Z,93.82
2023-03-22T03:41:49.498Z,93.71
2023-03-22T03:42:49.532Z,93.51
2023-03-22T03:43:49.466Z,93.62
2023-03-22T03:44:49.480Z,93.71
2023-03-22T03:45:49.471Z,93.71
2023-03-22T03:46:49.436Z,93.62
2023-03-22T03:47:49.450Z,93.62
2023-03-22T03:48:49.438Z,93.62
2023-03-22T03:49:49.392Z,93.62
2023-03-22T03:50:49.396Z,93.71
2023-03-22T03:51:49.398Z,93.51
2023-03-22T03:52:49.381Z,93.62
2023-03-22T03:53:49.398Z,93.51
2023-03-22T03:54:49.347Z,93.51
2023-03-22T03:55:49.353Z,93.26
2023-03-22T03:56:49.330Z,93.26
2023-03-22T03:57:49.310Z,93.20
2023-03-22T03:58:49.309Z,93.16
2023-03-22T03:59:49.301Z,93.26
2023-03-22T04:00:49.291Z,93.30
2023-03-22T04:01:49.270Z,93.30
2023-03-22T04:02:49.262Z,93.30
2023-03-22T04:03:49.257Z,93.41
2023-03-22T04:04:49.295Z,93.62
2023-03-22T04:05:49.212Z,93.71
2023-03-22T04:06:49.228Z,93.82
2023-03-22T04:07:49.207Z,93.82
2023-03-22T04:08:49.191Z,93.92
2023-03-22T04:09:49.176Z,93.92
2023-03-22T04:10:49.212Z,93.92
2023-03-22T04:11:49.151Z,94.02
2023-03-22T04:12:49.160Z,94.02
2023-03-22T04:13:49.127Z,94.02
2023-03-22T04:14:49.139Z,94.12
2023-03-22T04:15:49.102Z,94.12
2023-03-22T04:16:49.180Z,94.23
2023-03-22T04:17:49.088Z,94.23
2023-03-22T04:18:49.110Z,94.33
2023-03-22T04:19:49.072Z,94.23
2023-03-22T04:20:49.076Z,94.12
2023-03-22T04:21:49.074Z,94.33
2023-03-22T04:22:49.074Z,94.23
2023-03-22T04:23:49.015Z,94.23
2023-03-22T04:24:49.023Z,94.23
2023-03-22T04:25:49.044Z,94.23
2023-03-22T04:26:49.002Z,94.23
2023-03-22T04:27:48.981Z,94.33
2023-03-22T04:28:48.974Z,94.33
2023-03-22T04:29:48.955Z,94.33
2023-03-22T04:30:48.971Z,94.33
2023-03-22T04:31:48.959Z,94.43
2023-03-22T04:32:48.922Z,94.43
2023-03-22T04:33:48.910Z,94.43
2023-03-22T04:34:48.921Z,94.43
2023-03-22T04:35:48.915Z,94.33
2023-03-22T04:36:48.885Z,94.43
2023-03-22T04:37:48.900Z,94.33
2023-03-22T04:38:48.877Z,94.33
2023-03-22T04:39:48.848Z,94.33
2023-03-22T04:40:48.852Z,94.33
2023-03-22T04:41:48.813Z,94.23
2023-03-22T04:42:48.830Z,94.23
2023-03-22T04:43:48.802Z,94.12
2023-03-22T04:44:48.801Z,94.23
2023-03-22T04:45:48.784Z,94.23
2023-03-22T04:46:48.765Z,94.27
2023-03-22T04:47:48.794Z,94.37
2023-03-22T04:48:48.744Z,94.37
2023-03-22T04:49:48.721Z,94.48
2023-03-22T04:50:48.734Z,94.68
2023-03-22T04:51:48.715Z,94.78
2023-03-22T04:52:48.693Z,94.78
2023-03-22T04:53:48.686Z,94.99
2023-03-22T04:54:48.673Z,95.03
2023-03-22T04:55:48.673Z,95.14
2023-03-22T04:56:48.701Z,95.14
2023-03-22T04:57:48.641Z,95.24
2023-03-22T04:58:48.633Z,95.44
2023-03-22T04:59:48.662Z,95.54
2023-03-22T05:00:48.629Z,95.65
2023-03-22T05:01:48.640Z,95.65
2023-03-22T05:02:48.664Z,95.65
2023-03-22T05:03:48.582Z,95.65
2023-03-22T05:04:48.596Z,95.75
2023-03-22T05:05:48.585Z,95.75
2023-03-22T05:06:48.533Z,95.79
2023-03-22T05:07:48.544Z,95.90
2023-03-22T05:08:48.515Z,95.90
2023-03-22T05:09:48.497Z,96.00
2023-03-22T05:10:48.494Z,96.20
2023-03-22T05:11:48.492Z,96.10
2023-03-22T05:12:48.492Z,96.10
2023-03-22T05:13:48.448Z,96.00
2023-03-22T05:14:48.488Z,96.10
2023-03-22T05:15:48.480Z,96.00
2023-03-22T05:16:48.474Z,96.10
2023-03-22T05:17:48.404Z,96.10
2023-03-22T05:18:48.416Z,96.00
2023-03-22T05:19:48.401Z,96.10
2023-03-22T05:20:48.384Z,96.10
2023-03-22T05:21:48.386Z,96.20
2023-03-22T05:22:48.346Z,96.10
2023-03-22T05:23:50.342Z,96.10
2023-03-22T05:24:48.333Z,96.31
2023-03-22T05:25:48.324Z,96.31
2023-03-22T05:26:48.356Z,96.31
2023-03-22T05:27:48.330Z,96.56
2023-03-22T05:28:48.293Z,96.45
2023-03-22T05:29:48.268Z,96.56
2023-03-22T05:30:48.277Z,96.66
2023-03-22T05:31:48.709Z,96.77
2023-03-22T05:32:48.256Z,96.77
2023-03-22T05:33:48.233Z,96.77
2023-03-22T05:34:48.228Z,96.77
2023-03-22T05:35:48.254Z,96.87
2023-03-22T05:36:48.206Z,96.87
2023-03-22T05:37:48.222Z,96.87
2023-03-22T05:38:48.263Z,96.97
2023-03-22T05:39:48.147Z,96.97
2023-03-22T05:40:48.170Z,96.97
2023-03-22T05:41:48.145Z,97.07
2023-03-22T05:42:48.141Z,96.97
2023-03-22T05:43:48.269Z,97.07
2023-03-22T05:44:48.110Z,97.22
2023-03-22T05:45:48.107Z,97.32
2023-03-22T05:46:48.153Z,97.32
2023-03-22T05:47:48.098Z,97.32
2023-03-22T05:48:48.069Z,97.42
2023-03-22T05:49:48.130Z,97.63
2023-03-22T05:50:48.092Z,97.73
2023-03-22T05:51:48.290Z,97.73
2023-03-22T05:52:48.023Z,97.69
2023-03-22T05:53:48.006Z,97.69
2023-03-22T05:54:48.046Z,97.69
2023-03-22T05:55:47.971Z,97.58
2023-03-22T05:56:48.002Z,97.58
2023-03-22T05:57:47.977Z,97.58
2023-03-22T05:58:47.964Z,97.58
2023-03-22T05:59:47.932Z,97.48
2023-03-22T06:00:47.956Z,97.33
2023-03-22T06:01:47.930Z,97.44
2023-03-22T06:02:47.966Z,97.33
2023-03-22T06:03:47.913Z,97.23
2023-03-22T06:04:47.908Z,97.03
2023-03-22T06:05:47.893Z,97.03
2023-03-22T06:06:47.878Z,96.67
2023-03-22T06:07:47.846Z,96.67
2023-03-22T06:08:47.845Z,96.57
2023-03-22T06:09:47.824Z,96.16
2023-03-22T06:10:47.833Z,96.06
2023-03-22T06:11:48.412Z,95.86
2023-03-22T06:12:47.827Z,95.50
2023-03-22T06:13:47.784Z,94.78
2023-03-22T06:14:47.774Z,94.89
2023-03-22T06:15:47.768Z,94.68
2023-03-22T06:16:47.791Z,94.48
2023-03-22T06:17:47.742Z,94.58
2023-03-22T06:18:47.748Z,94.48
2023-03-22T06:19:47.721Z,94.37
2023-03-22T06:20:47.726Z,94.12
2023-03-22T06:21:47.684Z,93.92
2023-03-22T06:22:47.698Z,93.92
2023-03-22T06:23:47.668Z,93.92
2023-03-22T06:24:47.668Z,93.82
2023-03-22T06:25:47.667Z,93.82
2023-03-22T06:26:47.652Z,93.71
2023-03-22T06:27:47.618Z,93.51
2023-03-22T06:28:47.616Z,93.51
2023-03-22T06:29:47.609Z,93.41
2023-03-22T06:30:47.699Z,93.51
2023-03-22T06:31:47.599Z,93.41
2023-03-22T06:32:47.591Z,93.30
2023-03-22T06:33:47.565Z,93.30
2023-03-22T06:34:47.542Z,93.41
2023-03-22T06:35:47.575Z,93.10
2023-03-22T06:36:47.519Z,93.10
2023-03-22T06:37:47.508Z,93.10
2023-03-22T06:38:47.643Z,93.00
2023-03-22T06:39:47.490Z,92.75
2023-03-22T06:40:47.477Z,92.85
2023-03-22T06:41:47.474Z,92.96
2023-03-22T06:42:47.456Z,92.96
2023-03-22T06:43:47.478Z,93.06
2023-03-22T06:44:47.468Z,93.16
2023-03-22T06:45:47.401Z,93.26
2023-03-22T06:46:47.415Z,93.37
2023-03-22T06:47:47.421Z,92.96
2023-03-22T06:48:47.377Z,92.75
2023-03-22T06:49:47.384Z,92.55
2023-03-22T06:50:47.367Z,92.24
2023-03-22T06:51:47.352Z,92.24
2023-03-22T06:52:47.340Z,92.14
2023-03-22T06:53:47.324Z,92.24
2023-03-22T06:54:47.340Z,92.24
2023-03-22T06:55:47.299Z,92.03
2023-03-22T06:56:47.288Z,91.99
2023-03-22T06:57:47.279Z,91.89
2023-03-22T06:58:47.273Z,91.89
2023-03-22T06:59:47.271Z,91.89
2023-03-22T07:00:47.258Z,91.69
2023-03-22T07:01:47.281Z,91.78
2023-03-22T07:02:47.220Z,91.69
2023-03-22T07:03:47.207Z,91.58
2023-03-22T07:04:47.334Z,91.44
2023-03-22T07:05:47.177Z,91.44
2023-03-22T07:06:47.189Z,91.23
2023-03-22T07:07:47.170Z,91.54
2023-03-22T07:08:47.148Z,91.33
2023-03-22T07:09:47.138Z,91.03
2023-03-22T07:10:47.131Z,91.03
2023-03-22T07:11:47.141Z,90.82
2023-03-22T07:12:47.144Z,90.58
2023-03-22T07:13:47.102Z,90.37
2023-03-22T07:14:47.109Z,90.37
2023-03-22T07:15:47.126Z,90.17
2023-03-22T07:16:47.072Z,90.06
2023-03-22T07:17:47.076Z,89.86
2023-03-22T07:18:47.041Z,89.97
2023-03-22T07:19:47.060Z,89.65
2023-03-22T07:20:47.049Z,89.86
2023-03-22T07:21:47.008Z,89.97
2023-03-22T07:22:47.008Z,90.17
2023-03-22T07:23:46.999Z,89.86
2023-03-22T07:24:56.010Z,89.97
2023-03-22T07:25:47.982Z,89.86
2023-03-22T07:26:46.959Z,89.45
2023-03-22T07:27:46.949Z,89.65
2023-03-22T07:28:47.080Z,90.06
2023-03-22T07:29:46.921Z,90.06
2023-03-22T07:30:46.906Z,89.65
2023-03-22T07:31:47.033Z,89.65
2023-03-22T07:32:46.897Z,89.65
2023-03-22T07:33:46.860Z,89.72
2023-03-22T07:34:46.861Z,90.12
2023-03-22T07:35:46.900Z,90.02
2023-03-22T07:36:46.822Z,89.51
2023-03-22T07:37:46.852Z,89.61
2023-03-22T07:38:46.813Z,89.72
2023-03-22T07:39:46.817Z,89.61
2023-03-22T07:40:46.805Z,89.31
2023-03-22T07:41:46.782Z,89.20
2023-03-22T07:42:46.786Z,89.00
2023-03-22T07:43:55.243Z,89.31
2023-03-22T07:44:47.831Z,89.31
2023-03-22T07:45:46.748Z,89.31
2023-03-22T07:46:46.863Z,89.61
2023-03-22T07:47:46.755Z,89.00
2023-03-22T07:48:46.703Z,88.90
2023-03-22T07:49:46.744Z,89.00
2023-03-22T07:50:46.691Z,89.20
2023-03-22T07:51:46.716Z,88.90
2023-03-22T07:52:46.665Z,88.79
2023-03-22T07:53:46.669Z,88.70
2023-03-22T07:54:46.630Z,88.70
2023-03-22T07:55:46.630Z,88.70
2023-03-22T07:56:46.618Z,88.70
2023-03-22T07:57:46.634Z,88.59
2023-03-22T07:58:46.636Z,88.29
2023-03-22T07:59:46.587Z,88.59
2023-03-22T08:00:46.611Z,88.35
2023-03-22T08:01:46.584Z,87.94
2023-03-22T08:02:46.587Z,87.84
2023-03-22T08:03:46.571Z,87.73
2023-03-22T08:04:47.983Z,87.53
2023-03-22T08:05:46.524Z,87.73
2023-03-22T08:06:46.502Z,87.53
2023-03-22T08:07:46.507Z,87.32
2023-03-22T08:08:46.512Z,87.23
2023-03-22T08:09:46.474Z,87.12
2023-03-22T08:13:22.478Z,87.29
2023-03-22T08:14:07.858Z,86.77
2023-03-22T08:15:07.531Z,86.47
2023-03-22T08:16:07.552Z,86.57
2023-03-22T08:17:07.501Z,86.26
2023-03-22T08:18:07.524Z,86.26
2023-03-22T08:19:07.906Z,86.47
2023-03-22T08:20:07.456Z,86.47
2023-03-22T08:21:07.473Z,86.33
2023-03-22T08:22:07.449Z,86.02
2023-03-22T08:23:07.438Z,85.71
2023-03-22T08:24:07.449Z,85.21
2023-03-22T08:25:07.408Z,84.96
2023-03-22T08:26:07.403Z,85.06
2023-03-22T08:27:07.393Z,84.25
2023-03-22T08:28:07.377Z,84.45
2023-03-22T08:29:07.374Z,84.61
2023-03-22T08:30:07.365Z,83.59
2023-03-22T08:31:07.343Z,82.98
2023-03-22T08:32:07.425Z,83.35
2023-03-22T08:33:07.344Z,82.74
2023-03-22T08:34:07.316Z,83.65
2023-03-22T08:35:07.329Z,83.04
2023-03-22T08:36:07.293Z,82.33
2023-03-22T08:37:07.581Z,82.84
2023-03-22T08:38:07.262Z,82.43
2023-03-22T08:39:07.263Z,82.33
2023-03-22T08:40:07.274Z,82.29
2023-03-22T08:41:07.243Z,81.27
2023-03-22T08:42:07.235Z,81.88
2023-03-22T08:43:07.220Z,80.87
2023-03-22T08:44:07.211Z,81.48
2023-03-22T08:45:07.204Z,81.27
2023-03-22T08:46:07.278Z,80.87
2023-03-22T08:47:07.192Z,80.97
2023-03-22T08:48:07.214Z,80.97
2023-03-22T08:49:07.152Z,80.66
2023-03-22T08:50:07.120Z,80.87
2023-03-22T08:51:07.142Z,81.01
2023-03-22T08:52:07.142Z,81.01
2023-03-22T08:53:07.115Z,81.21
2023-03-22T08:54:07.087Z,80.74
2023-03-22T08:55:07.080Z,81.66
2023-03-22T08:56:07.060Z,82.03
2023-03-22T08:57:07.059Z,81.62
2023-03-22T08:58:07.059Z,81.31
2023-03-22T08:59:07.037Z,81.52
2023-03-22T09:00:07.024Z,81.41
2023-03-22T09:01:07.069Z,81.21
2023-03-22T09:02:07.137Z,80.91
2023-03-22T09:03:07.001Z,81.11
2023-03-22T09:04:08.957Z,81.31
2023-03-22T09:05:06.964Z,81.31
2023-03-22T09:06:06.953Z,81.31
2023-03-22T09:07:06.940Z,81.27
2023-03-22T09:08:07.010Z,81.38
2023-03-22T09:09:06.936Z,80.87
2023-03-22T09:10:06.927Z,80.26
2023-03-22T09:11:06.910Z,79.95
2023-03-22T09:12:06.891Z,80.05
2023-03-22T09:13:06.926Z,80.46
2023-03-22T09:14:06.869Z,80.46
2023-03-22T09:15:06.865Z,79.54
2023-03-22T09:16:06.966Z,80.16
2023-03-22T09:17:06.947Z,79.81
2023-03-22T09:18:06.821Z,79.81
2023-03-22T09:19:06.813Z,79.50
2023-03-22T09:20:12.865Z,80.02
2023-03-22T09:21:07.795Z,78.80
2023-03-22T09:22:06.770Z,78.19
2023-03-22T09:23:06.769Z,77.78
2023-03-22T09:24:06.773Z,77.87
2023-03-22T09:25:06.752Z,78.08
2023-03-22T09:26:06.721Z,78.25
2023-03-22T09:27:06.737Z,78.55
2023-03-22T09:28:06.732Z,76.99
2023-03-22T09:29:06.701Z,76.99
2023-03-22T09:30:06.723Z,76.38
2023-03-22T09:31:06.736Z,76.38
2023-03-22T09:32:06.661Z,76.99
2023-03-22T09:33:06.668Z,76.48
2023-03-22T09:34:06.649Z,75.46
2023-03-22T09:35:06.633Z,76.01
2023-03-22T09:36:06.636Z,76.01
2023-03-22T09:37:06.621Z,76.21
2023-03-22T09:38:06.608Z,76.52
2023-03-22T09:39:06.595Z,76.11
2023-03-22T09:40:06.573Z,75.91
2023-03-22T09:41:06.582Z,76.21
2023-03-22T09:42:06.571Z,75.60
2023-03-22T09:43:06.542Z,74.89
2023-03-22T09:44:06.526Z,74.58
2023-03-22T09:45:06.521Z,73.77
2023-03-22T09:46:06.543Z,74.45
2023-03-22T09:47:06.521Z,73.23
2023-03-22T09:48:06.493Z,72.78
2023-03-22T09:49:06.473Z,72.99
2023-03-22T09:50:06.454Z,72.99
2023-03-22T09:51:06.475Z,72.85
2023-03-22T09:52:06.478Z,72.65
2023-03-22T09:53:06.432Z,72.25
2023-03-22T09:54:06.601Z,71.94
2023-03-22T09:55:06.413Z,71.64
2023-03-22T09:56:06.566Z,72.38
2023-03-22T09:57:06.385Z,72.48
2023-03-22T09:58:06.366Z,72.21
2023-03-22T09:59:06.355Z,72.92
2023-03-22T10:00:06.366Z,73.33
2023-03-22T10:01:06.565Z,73.63
2023-03-22T10:02:06.452Z,74.31
2023-03-22T10:03:06.307Z,73.30
2023-03-22T10:04:06.461Z,73.26
2023-03-22T10:05:06.319Z,72.75
2023-03-22T10:06:06.279Z,72.45
2023-03-22T10:07:06.271Z,72.11
2023-03-22T10:08:06.268Z,70.79
2023-03-22T10:09:06.246Z,70.25
2023-03-22T10:10:06.247Z,69.67
2023-03-22T10:11:06.225Z,70.18
2023-03-22T10:12:06.207Z,70.68
2023-03-22T10:13:06.218Z,70.48
2023-03-22T10:14:06.229Z,70.82
2023-03-22T10:15:06.206Z,71.03
2023-03-22T10:16:06.200Z,71.64
2023-03-22T10:17:06.178Z,70.21
2023-03-22T10:18:06.140Z,71.16
2023-03-22T10:19:06.142Z,71.36
2023-03-22T10:20:06.352Z,72.08
2023-03-22T10:21:06.112Z,71.84
2023-03-22T10:22:06.097Z,72.34
2023-03-22T10:23:06.085Z,70.79
2023-03-22T10:24:06.077Z,70.48
2023-03-22T10:25:06.079Z,70.48
2023-03-22T10:26:06.540Z,71.12
2023-03-22T10:27:06.053Z,71.73
2023-03-22T10:28:06.030Z,72.52
2023-03-22T10:29:06.051Z,71.40
2023-03-22T10:30:05.997Z,71.80
2023-03-22T10:31:06.223Z,72.21
2023-03-22T10:32:05.978Z,71.50
2023-03-22T10:33:05.979Z,71.33
2023-03-22T10:34:05.976Z,71.73
2023-03-22T10:35:05.957Z,72.28
2023-03-22T10:36:05.985Z,72.28
2023-03-22T10:37:05.962Z,71.97
2023-03-22T10:38:05.909Z,72.58
2023-03-22T10:39:05.916Z,72.48
2023-03-22T10:40:05.910Z,72.17
2023-03-22T10:41:05.890Z,72.89
2023-03-22T10:42:05.880Z,72.41
2023-03-22T10:43:05.868Z,73.13
2023-03-22T10:44:05.858Z,73.39
2023-03-22T10:45:05.841Z,73.09
2023-03-22T10:46:05.849Z,72.99
2023-03-22T10:47:05.888Z,72.78
2023-03-22T10:48:05.878Z,73.09
2023-03-22T10:49:05.807Z,73.39
2023-03-22T10:50:05.771Z,73.70
2023-03-22T10:51:05.774Z,73.26
2023-03-22T10:52:05.799Z,73.26
2023-03-22T10:53:05.757Z,72.96
2023-03-22T10:54:05.763Z,72.75
2023-03-22T10:55:05.744Z,72.65
2023-03-22T10:56:05.714Z,73.06
2023-03-22T10:57:05.707Z,72.75
2023-03-22T10:58:05.725Z,73.46
2023-03-22T10:59:05.693Z,73.22
2023-03-22T11:00:05.672Z,72.52
2023-03-22T11:01:05.867Z,72.92
2023-03-22T11:02:05.785Z,72.17
2023-03-22T11:03:05.707Z,71.57
2023-03-22T11:04:05.628Z,71.60
2023-03-22T11:05:05.622Z,71.70
2023-03-22T11:06:05.774Z,72.11
2023-03-22T11:07:05.619Z,71.91
2023-03-22T11:08:05.619Z,72.04
2023-03-22T11:09:05.579Z,72.21
2023-03-22T11:10:05.560Z,72.31
2023-03-22T11:11:05.563Z,72.34
2023-03-22T11:12:05.527Z,72.75
2023-03-22T11:13:05.540Z,72.85
2023-03-22T11:14:05.698Z,72.72
2023-03-22T11:15:05.507Z,72.11
2023-03-22T11:16:05.514Z,71.50
2023-03-22T11:17:05.486Z,71.50
2023-03-22T11:18:05.471Z,71.40
2023-03-22T11:19:05.487Z,71.20
2023-03-22T11:20:07.270Z,71.40
2023-03-22T11:21:05.445Z,70.55
2023-03-22T11:22:05.416Z,70.65
2023-03-22T11:23:05.417Z,70.45
2023-03-22T11:24:05.398Z,70.65
2023-03-22T11:25:05.417Z,69.20
2023-03-22T11:26:05.909Z,69.20
2023-03-22T11:27:05.370Z,69.00
2023-03-22T11:28:05.349Z,69.51
2023-03-22T11:29:05.371Z,69.30
2023-03-22T11:30:05.330Z,69.40
2023-03-22T11:31:05.337Z,69.27
2023-03-22T11:32:05.402Z,68.05
2023-03-22T11:33:05.368Z,67.92
2023-03-22T11:34:05.318Z,67.82
2023-03-22T11:35:05.346Z,67.41
2023-03-22T11:36:05.365Z,67.55
2023-03-22T11:37:05.309Z,68.15
2023-03-22T11:38:05.321Z,68.46
2023-03-22T11:39:05.281Z,67.75
2023-03-22T11:40:05.508Z,67.24
2023-03-22T11:41:05.350Z,67.75
2023-03-22T11:42:05.301Z,67.65
2023-03-22T11:43:05.331Z,67.58
2023-03-22T11:44:05.306Z,68.19
2023-03-22T11:45:05.411Z,68.39
2023-03-22T11:46:05.502Z,68.70
2023-03-22T11:47:05.272Z,68.39
2023-03-22T11:48:05.599Z,67.68
2023-03-22T11:49:05.204Z,68.08
2023-03-22T11:50:05.216Z,67.98
2023-03-22T11:51:05.104Z,67.95
2023-03-22T11:52:05.418Z,67.55
2023-03-22T11:53:05.084Z,67.03
2023-03-22T11:54:05.062Z,66.94
2023-03-22T11:55:05.054Z,67.34
2023-03-22T11:56:05.050Z,67.34
2023-03-22T11:57:05.054Z,66.94
2023-03-22T11:58:05.071Z,66.33
2023-03-22T11:59:05.035Z,66.63
2023-03-22T12:00:05.006Z,66.80
2023-03-22T12:01:05.021Z,66.60
2023-03-22T12:02:05.014Z,65.18
2023-03-22T12:03:05.086Z,64.98
2023-03-22T12:04:05.044Z,64.98
2023-03-22T12:05:05.000Z,64.88
2023-03-22T12:06:04.973Z,64.20
2023-03-22T12:07:04.957Z,65.52
2023-03-22T12:08:04.925Z,65.21
2023-03-22T12:09:04.902Z,65.01
2023-03-22T12:10:04.888Z,65.62
2023-03-22T12:11:04.913Z,65.31
2023-03-22T12:12:04.880Z,64.81
2023-03-22T12:13:04.871Z,65.11
2023-03-22T12:14:04.834Z,65.62
2023-03-22T12:15:04.848Z,65.72
2023-03-22T12:16:04.888Z,66.16
2023-03-22T12:17:04.833Z,66.36
2023-03-22T12:18:07.270Z,66.86
2023-03-22T12:19:04.796Z,66.77
2023-03-22T12:20:04.782Z,67.24
2023-03-22T12:21:04.767Z,65.75
2023-03-22T12:22:04.754Z,65.65
2023-03-22T12:23:04.734Z,65.34
2023-03-22T12:24:04.749Z,65.34
2023-03-22T12:25:04.715Z,64.94
2023-03-22T12:26:04.714Z,65.34
2023-03-22T12:27:04.695Z,65.34
2023-03-22T12:28:04.696Z,64.67
2023-03-22T12:29:04.779Z,65.37
2023-03-22T12:30:04.671Z,65.48
2023-03-22T12:31:04.683Z,65.78
2023-03-22T12:32:04.669Z,65.88
2023-03-22T12:33:04.675Z,66.12
2023-03-22T12:34:04.637Z,67.33
2023-03-22T12:35:16.749Z,67.30
2023-03-22T12:36:05.884Z,67.50
2023-03-22T12:37:04.610Z,68.25
2023-03-22T12:38:04.582Z,69.03
2023-03-22T12:39:04.590Z,67.84
2023-03-22T12:40:04.728Z,68.35
2023-03-22T12:41:04.536Z,68.86
2023-03-22T12:42:04.542Z,68.66
2023-03-22T12:43:04.529Z,67.64
2023-03-22T12:44:04.516Z,68.05
2023-03-22T12:45:05.761Z,68.38
2023-03-22T12:46:04.514Z,69.30
2023-03-22T12:47:11.587Z,69.40
2023-03-22T12:48:04.602Z,70.21
2023-03-22T12:49:05.273Z,70.11
2023-03-22T12:50:04.461Z,70.62
2023-03-22T12:51:04.428Z,69.50
2023-03-22T12:52:04.429Z,70.55
2023-03-22T12:53:04.425Z,71.36
2023-03-22T12:54:04.408Z,71.97
2023-03-22T12:55:04.513Z,73.09